Time;durP1;ratioP1;P1;durP2;ratioP2;P2;SDS_P1;SDS_P2;PMS_P1;PMS_P2;Temp;Humidity;BMP_temperature;BMP_pressure;BME280_temperature;BME280_humidity;BME280_pressure;Samples;Min_cycle;Max_cycle;Signal;HPM_P1;HPM_P2
2022/12/05 06:56:45;;;;;;;;;46.75;38.75;;;;;4.54;100.00;101634.44;5508703;23;49768;-75
2022/12/05 06:59:11;;;;;;;;;47.50;41.50;;;;;4.80;100.00;101663.66;4970899;28;52202;-76
2022/12/05 07:01:42;;;;;;;;;49.25;39.25;;;;;4.33;100.00;101633.16;4990818;28;49921;-75
2022/12/05 07:04:15;;;;;;;;;48.75;39.50;;;;;5.09;100.00;101725.19;4990544;28;49803;-75
2022/12/05 07:06:43;;;;;;;;;56.50;42.75;;;;;4.08;100.00;101589.22;4990652;28;49837;-75
2022/12/05 07:09:09;;;;;;;;;54.00;44.00;;;;;4.85;100.00;101689.16;4991888;28;50769;-74
2022/12/05 07:11:35;;;;;;;;;64.00;47.25;;;;;4.42;100.00;101630.19;4974625;28;49989;-74
2022/12/05 07:14:01;;;;;;;;;45.25;39.75;;;;;5.05;100.00;101734.56;4977035;28;49835;-75
2022/12/05 07:16:27;;;;;;;;;53.50;42.00;;;;;3.61;100.00;101508.44;4979033;28;49801;-75
2022/12/05 07:18:52;;;;;;;;;42.25;39.00;;;;;4.95;100.00;101732.22;4976000;28;49671;-75
2022/12/05 07:21:20;;;;;;;;;57.75;44.00;;;;;5.03;100.00;101751.78;4974419;28;49869;-75
2022/12/05 07:23:46;;;;;;;;;47.50;36.50;;;;;5.06;100.00;101746.75;4959159;28;49893;-75
2022/12/05 07:26:14;;;;;;;;;42.25;36.50;;;;;5.08;100.00;101758.13;4971399;28;49777;-75
2022/12/05 07:28:39;;;;;;;;;58.50;44.00;;;;;3.75;100.00;101530.94;4974356;28;49685;-75
2022/12/05 07:31:08;;;;;;;;;41.25;35.00;;;;;4.06;100.00;101571.75;4971448;28;50026;-75
2022/12/05 07:33:34;;;;;;;;;53.25;42.75;;;;;4.53;100.00;101657.72;4953569;28;50142;-75
2022/12/05 07:36:01;;;;;;;;;43.50;36.75;;;;;3.78;100.00;101554.50;4971522;28;49930;-75
2022/12/05 07:38:27;;;;;;;;;49.50;42.25;;;;;4.89;100.00;101737.03;4971979;28;49922;-75
2022/12/05 07:40:53;;;;;;;;;50.75;43.25;;;;;4.94;100.00;101760.75;4972360;28;49868;-70
2022/12/05 07:43:18;;;;;;;;;55.25;44.25;;;;;4.70;100.00;101729.84;4969382;28;50192;-72
2022/12/05 07:45:43;;;;;;;;;50.00;40.00;;;;;4.91;100.00;101764.06;4971183;28;50088;-69
2022/12/05 07:48:08;;;;;;;;;61.00;47.75;;;;;4.87;100.00;101769.88;4971036;28;50503;-68
2022/12/05 07:50:35;;;;;;;;;36.00;31.25;;;;;4.64;100.00;101728.63;4974784;28;49876;-71
2022/12/05 07:53:01;;;;;;;;;54.25;43.50;;;;;4.71;100.00;101734.25;4970921;28;50062;-69
2022/12/05 07:55:26;;;;;;;;;59.25;43.00;;;;;4.81;100.00;101761.72;4975446;28;52542;-70
2022/12/05 07:57:51;;;;;;;;;51.50;43.00;;;;;4.84;100.00;101774.91;4974881;28;68456;-67
2022/12/05 08:00:17;;;;;;;;;55.75;44.75;;;;;4.86;100.00;101773.31;4970482;28;49611;-66
2022/12/05 08:02:42;;;;;;;;;58.00;46.25;;;;;4.91;100.00;101781.38;4970270;28;49659;-68
2022/12/05 08:05:08;;;;;;;;;56.25;44.50;;;;;4.65;100.00;101725.22;4970571;28;49586;-66
2022/12/05 08:07:33;;;;;;;;;56.25;45.00;;;;;4.91;100.00;101782.25;4974144;28;49831;-68
2022/12/05 08:09:58;;;;;;;;;50.75;39.50;;;;;4.83;100.00;101765.31;4970131;28;49888;-66
2022/12/05 08:12:24;;;;;;;;;55.50;46.25;;;;;4.86;100.00;101766.38;4970247;28;49685;-66
2022/12/05 08:14:49;;;;;;;;;53.75;43.50;;;;;4.94;100.00;101774.66;4971330;28;49892;-67
2022/12/05 08:17:14;;;;;;;;;60.25;49.00;;;;;5.05;100.00;101790.91;4981576;28;54026;-66
2022/12/05 08:19:39;;;;;;;;;44.75;38.00;;;;;5.16;100.00;101808.94;4970193;28;60458;-66
2022/12/05 08:22:05;;;;;;;;;56.50;44.00;;;;;4.77;100.00;101736.34;4975461;28;60125;-66
2022/12/05 08:24:30;;;;;;;;;49.50;42.25;;;;;4.97;100.00;101769.63;4973787;28;50095;-66
2022/12/05 08:26:56;;;;;;;;;61.00;44.25;;;;;5.14;100.00;101801.88;4975926;28;49881;-66
2022/12/05 08:29:21;;;;;;;;;53.00;43.25;;;;;5.26;100.00;101812.09;4984056;28;50061;-65
2022/12/05 08:31:49;;;;;;;;;56.50;42.00;;;;;5.21;100.00;101813.50;4971626;28;49814;-66
2022/12/05 08:34:17;;;;;;;;;46.00;41.75;;;;;5.27;100.00;101819.09;4978938;28;50084;-66
2022/12/05 08:36:42;;;;;;;;;60.75;48.00;;;;;5.22;100.00;101810.13;4983302;28;50156;-64
2022/12/05 08:39:13;;;;;;;;;54.50;45.50;;;;;5.28;100.00;101815.69;4973585;28;49706;-64
2022/12/05 08:41:38;;;;;;;;;56.25;47.50;;;;;5.25;100.00;101803.38;4974299;28;49803;-65
2022/12/05 08:44:04;;;;;;;;;49.25;43.00;;;;;5.26;100.00;101809.50;4976917;28;49807;-67
2022/12/05 08:46:31;;;;;;;;;50.75;41.25;;;;;5.20;100.00;101811.72;4985389;28;50150;-64
2022/12/05 08:48:57;;;;;;;;;59.50;47.00;;;;;5.31;100.00;101810.69;4978008;28;49575;-66
2022/12/05 08:51:22;;;;;;;;;58.00;43.50;;;;;5.13;100.00;101789.66;4974716;28;49623;-66
2022/12/05 08:53:48;;;;;;;;;59.25;46.75;;;;;5.30;100.00;101819.25;4974113;28;49872;-67
2022/12/05 08:56:13;;;;;;;;;49.50;44.00;;;;;5.11;100.00;101794.75;4968306;28;68979;-65
2022/12/05 08:58:39;;;;;;;;;54.00;45.00;;;;;5.05;100.00;101797.00;4983579;28;49656;-65
2022/12/05 09:01:14;;;;;;;;;61.00;44.00;;;;;5.23;100.00;101820.63;4980524;28;49833;-66
2022/12/05 09:03:40;;;;;;;;;55.00;43.25;;;;;5.31;100.00;101818.50;4978287;28;49698;-65
2022/12/05 09:06:23;;;;;;;;;52.75;44.25;;;;;5.25;100.00;101831.13;4980657;28;49811;-66
2022/12/05 09:08:52;;;;;;;;;66.00;45.50;;;;;5.26;100.00;101826.00;4973701;28;49764;-66
2022/12/05 09:11:23;;;;;;;;;60.00;45.50;;;;;5.32;100.00;101834.19;4973673;28;49632;-65
2022/12/05 09:13:51;;;;;;;;;52.25;41.50;;;;;5.29;100.00;101810.56;4976300;28;49743;-66
2022/12/05 09:16:19;;;;;;;;;52.50;44.25;;;;;5.42;100.00;101820.00;4973476;28;50767;-66
2022/12/05 09:18:46;;;;;;;;;53.00;39.75;;;;;5.53;100.00;101831.94;4973560;28;49716;-67
2022/12/05 09:21:15;;;;;;;;;54.25;45.50;;;;;5.60;100.00;101833.19;4974002;28;49970;-67
2022/12/05 09:23:40;;;;;;;;;58.75;43.00;;;;;5.62;100.00;101826.38;4973790;28;49670;-66
2022/12/05 09:26:08;;;;;;;;;54.25;42.75;;;;;5.69;100.00;101844.13;4973217;28;50374;-67
2022/12/05 09:28:34;;;;;;;;;65.25;50.75;;;;;5.72;100.00;101836.50;4973674;28;49773;-67
2022/12/05 09:31:04;;;;;;;;;57.50;44.25;;;;;5.76;100.00;101843.66;4973627;28;49780;-66
2022/12/05 09:33:35;;;;;;;;;52.50;43.75;;;;;5.82;100.00;101845.75;4972563;28;49821;-67
2022/12/05 09:36:03;;;;;;;;;58.50;47.50;;;;;5.71;100.00;101813.88;4981257;28;50556;-66
2022/12/05 09:38:28;;;;;;;;;66.25;49.75;;;;;5.83;100.00;101853.66;4973321;28;49916;-67
2022/12/05 09:41:03;;;;;;;;;55.75;44.00;;;;;5.62;100.00;101840.28;4982056;28;49826;-69
2022/12/05 09:43:50;;;;;;;;;50.75;45.25;;;;;5.71;100.00;101847.75;4976830;28;49792;-69
2022/12/05 09:46:48;;;;;;;;;55.75;43.25;;;;;5.50;100.00;101812.63;4982098;28;51092;-68
2022/12/05 09:49:13;;;;;;;;;44.25;39.00;;;;;5.65;100.00;101839.56;4985179;28;49764;-68
2022/12/05 09:51:43;;;;;;;;;60.25;47.25;;;;;5.63;100.00;101828.16;4991567;28;49851;-68
2022/12/05 09:54:10;;;;;;;;;49.75;44.50;;;;;5.83;100.00;101855.34;4986275;28;49744;-69
2022/12/05 09:56:37;;;;;;;;;51.25;43.00;;;;;5.93;100.00;101853.38;4988918;28;49606;-70
2022/12/05 09:59:04;;;;;;;;;59.25;41.00;;;;;5.94;100.00;101863.00;4986042;28;49784;-68
2022/12/05 10:01:42;;;;;;;;;47.25;39.50;;;;;5.96;100.00;101858.75;4981523;28;49729;-68
2022/12/05 10:04:14;;;;;;;;;53.25;42.50;;;;;5.96;100.00;101860.47;4976967;28;49735;-68
2022/12/05 10:06:46;;;;;;;;;56.75;45.00;;;;;6.00;100.00;101855.53;4985691;28;50254;-68
2022/12/05 10:09:36;;;;;;;;;66.00;47.75;;;;;6.04;100.00;101854.00;4992437;28;49845;-67
2022/12/05 10:12:18;;;;;;;;;57.50;46.25;;;;;6.05;100.00;101850.56;4991055;28;49945;-68
2022/12/05 10:14:44;;;;;;;;;58.50;43.50;;;;;6.09;100.00;101859.47;4990752;28;49773;-67
2022/12/05 10:17:28;;;;;;;;;57.00;46.00;;;;;6.15;100.00;101860.69;4991478;28;50385;-68
2022/12/05 10:19:58;;;;;;;;;54.25;45.50;;;;;6.18;100.00;101862.59;4991675;28;49772;-67
2022/12/05 10:22:53;;;;;;;;;59.00;49.00;;;;;6.26;100.00;101870.00;4972985;28;49698;-66
2022/12/05 10:25:21;;;;;;;;;62.25;46.00;;;;;6.14;100.00;101843.28;4963816;28;49659;-68
2022/12/05 10:27:53;;;;;;;;;58.75;47.50;;;;;6.31;100.00;101865.06;4972564;28;49798;-67
2022/12/05 10:30:22;;;;;;;;;58.75;46.50;;;;;6.25;100.00;101849.97;4972736;28;49873;-67
2022/12/05 10:32:52;;;;;;;;;63.25;46.00;;;;;6.25;100.00;101863.00;4972379;28;49777;-67
2022/12/05 10:35:33;;;;;;;;;58.00;45.00;;;;;6.06;100.00;101841.94;4972469;28;50088;-66
2022/12/05 10:38:03;;;;;;;;;60.00;50.00;;;;;6.21;100.00;101858.44;4990980;28;49774;-67
2022/12/05 10:40:41;;;;;;;;;60.75;47.75;;;;;6.37;100.00;101869.72;4972195;28;49595;-67
2022/12/05 10:43:10;;;;;;;;;60.25;45.25;;;;;6.34;100.00;101857.41;4972378;28;49959;-67
2022/12/05 10:45:42;;;;;;;;;61.50;49.25;;;;;6.27;100.00;101860.47;4954985;28;49984;-68
2022/12/05 10:48:11;;;;;;;;;60.00;47.50;;;;;6.30;100.00;101843.31;4972108;28;50396;-67
2022/12/05 10:50:38;;;;;;;;;53.50;45.25;;;;;6.42;100.00;101855.22;4972183;28;49828;-67
2022/12/05 10:53:05;;;;;;;;;59.00;49.00;;;;;6.48;100.00;101859.09;4972152;28;49828;-68
2022/12/05 10:55:41;;;;;;;;;58.75;44.75;;;;;6.52;100.00;101858.41;4972141;28;49732;-67
2022/12/05 10:58:22;;;;;;;;;53.00;44.25;;;;;6.57;100.00;101866.50;4972488;28;50474;-67
2022/12/05 11:00:57;;;;;;;;;56.75;46.00;;;;;6.47;100.00;101853.78;4972175;28;49706;-67
2022/12/05 11:03:32;;;;;;;;;61.00;47.25;;;;;6.02;100.00;101791.34;4972061;28;49931;-67
2022/12/05 11:06:01;;;;;;;;;51.00;42.25;;;;;6.42;100.00;101855.22;4972314;28;49751;-68
2022/12/05 11:08:30;;;;;;;;;36.75;31.50;;;;;6.42;100.00;101860.44;4971677;28;50563;-67
2022/12/05 11:11:06;;;;;;;;;62.50;49.50;;;;;6.50;100.00;101860.06;4971680;28;49940;-68
2022/12/05 11:13:32;;;;;;;;;53.25;43.50;;;;;6.54;100.00;101866.31;4972072;28;49607;-67
2022/12/05 11:15:58;;;;;;;;;57.50;43.00;;;;;6.42;100.00;101842.19;4953991;28;50048;-69
2022/12/05 11:18:28;;;;;;;;;60.50;48.25;;;;;6.30;100.00;101842.41;4971943;28;49816;-67
2022/12/05 11:20:54;;;;;;;;;60.75;49.25;;;;;6.45;100.00;101861.50;4971916;28;49814;-68
2022/12/05 11:23:29;;;;;;;;;62.50;49.00;;;;;6.48;100.00;101869.50;4954090;28;49778;-68
2022/12/05 11:25:57;;;;;;;;;61.75;47.25;;;;;6.50;100.00;101870.50;4971515;28;49763;-67
2022/12/05 11:28:24;;;;;;;;;60.50;49.50;;;;;6.36;100.00;101850.56;4971823;28;49952;-67
2022/12/05 11:31:05;;;;;;;;;64.75;47.25;;;;;6.45;100.00;101863.22;4971791;28;49620;-67
2022/12/05 11:33:32;;;;;;;;;63.50;49.00;;;;;6.50;100.00;101865.28;4971855;28;50577;-67
2022/12/05 11:36:10;;;;;;;;;64.25;49.50;;;;;6.40;100.00;101849.03;4971734;28;49738;-69
2022/12/05 11:38:35;;;;;;;;;64.75;49.50;;;;;6.34;100.00;101839.16;4971652;28;50433;-67
2022/12/05 11:41:24;;;;;;;;;64.00;53.25;;;;;6.49;100.00;101873.03;4971219;28;49817;-67
2022/12/05 11:44:04;;;;;;;;;60.50;44.25;;;;;6.55;100.00;101869.00;4971653;28;49861;-67
2022/12/05 11:46:53;;;;;;;;;57.75;48.25;;;;;6.60;100.00;101858.84;4971676;28;49741;-68
2022/12/05 11:49:39;;;;;;;;;61.50;49.00;;;;;6.71;100.00;101864.63;4971391;28;51057;-70
2022/12/05 11:52:53;;;;;;;;;61.25;49.50;;;;;6.84;100.00;101860.13;4971734;28;49883;-68
2022/12/05 11:55:44;;;;;;;;;59.75;42.25;;;;;6.90;100.00;101859.59;4903162;28;49842;-67
2022/12/05 11:58:31;;;;;;;;;57.75;47.75;;;;;6.86;100.00;101841.97;4894440;28;49978;-66
2022/12/05 12:01:07;;;;;;;;;52.75;42.75;;;;;7.04;100.00;101860.28;4973015;28;50338;-67
2022/12/05 12:03:48;;;;;;;;;58.50;48.50;;;;;7.11;100.00;101867.66;4976761;28;50348;-67
2022/12/05 12:09:06;;;;;;;;;56.00;47.00;;;;;7.05;100.00;101836.00;5668051;22;49506;-73
2022/12/05 12:11:55;;;;;;;;;60.50;47.50;;;;;7.01;100.00;101829.72;4938762;28;49977;-71
2022/12/05 12:14:26;;;;;;;;;61.50;47.00;;;;;7.20;100.00;101847.22;4958261;28;50169;-72
2022/12/05 12:17:07;;;;;;;;;49.25;38.75;;;;;7.17;100.00;101847.97;4949478;28;49761;-72
2022/12/05 12:19:57;;;;;;;;;46.25;40.50;;;;;7.12;100.00;101833.78;4947624;28;50199;-72
2022/12/05 12:22:56;;;;;;;;;50.25;41.25;;;;;7.14;100.00;101847.84;4947886;28;51652;-73
2022/12/05 12:25:37;;;;;;;;;56.75;45.50;;;;;7.11;100.00;101850.25;4936963;28;49697;-69
2022/12/05 12:28:13;;;;;;;;;60.25;45.25;;;;;7.02;100.00;101843.66;4932141;28;49881;-69
2022/12/05 12:30:51;;;;;;;;;58.00;46.00;;;;;7.10;100.00;101853.69;4932018;28;49750;-69
2022/12/05 12:33:34;;;;;;;;;52.00;42.00;;;;;7.16;100.00;101853.13;4931693;28;49627;-69
2022/12/05 12:36:15;;;;;;;;;62.75;47.75;;;;;7.17;100.00;101852.31;4931920;28;49869;-68
2022/12/05 12:38:43;;;;;;;;;60.25;46.00;;;;;7.18;100.00;101852.38;4931549;28;49888;-69
2022/12/05 12:41:30;;;;;;;;;52.50;44.50;;;;;7.22;100.00;101850.81;4932251;28;49924;-70
2022/12/05 12:44:33;;;;;;;;;56.25;45.75;;;;;7.23;100.00;101846.47;4931541;28;49771;-69
2022/12/05 12:47:02;;;;;;;;;55.75;43.50;;;;;7.19;100.00;101840.22;4931685;28;50472;-69
2022/12/05 12:50:04;;;;;;;;;58.25;46.50;;;;;7.26;100.00;101855.41;4931677;28;49655;-69
2022/12/05 12:52:50;;;;;;;;;55.00;42.75;;;;;7.30;100.00;101849.50;4931739;28;49992;-69
2022/12/05 12:56:08;;;;;;;;;58.75;48.00;;;;;7.40;100.00;101851.75;4931273;28;51034;-69
2022/12/05 12:58:45;;;;;;;;;61.25;48.25;;;;;7.17;100.00;101820.97;4919751;28;49960;-69
2022/12/05 13:01:29;;;;;;;;;58.50;42.75;;;;;7.39;100.00;101859.53;4931562;28;49775;-69
2022/12/05 13:04:01;;;;;;;;;59.00;46.50;;;;;7.41;100.00;101852.66;4931864;28;49742;-70
2022/12/05 13:06:35;;;;;;;;;54.00;43.00;;;;;7.42;100.00;101854.44;4931478;28;50401;-69
2022/12/05 13:09:23;;;;;;;;;60.75;49.25;;;;;7.41;100.00;101853.53;4934185;28;49886;-69
2022/12/05 13:11:50;;;;;;;;;55.25;44.50;;;;;7.36;100.00;101843.69;4934483;28;49839;-69
2022/12/05 13:14:23;;;;;;;;;56.50;43.25;;;;;7.27;100.00;101832.78;4934611;28;49765;-69
2022/12/05 13:16:51;;;;;;;;;58.75;47.50;;;;;7.37;100.00;101841.16;4937107;28;49756;-69
2022/12/05 13:19:39;;;;;;;;;62.25;48.00;;;;;7.40;100.00;101848.25;4933990;28;49694;-69
2022/12/05 13:22:06;;;;;;;;;61.75;46.25;;;;;7.33;100.00;101833.97;4933875;28;49817;-69
2022/12/05 13:24:32;;;;;;;;;61.50;44.50;;;;;7.41;100.00;101840.47;4934570;28;49568;-70
2022/12/05 13:27:00;;;;;;;;;56.00;43.25;;;;;7.35;99.96;101842.81;4934358;28;50567;-69
2022/12/05 13:29:33;;;;;;;;;59.50;43.50;;;;;7.22;100.00;101813.34;4941219;28;50487;-69
2022/12/05 13:32:01;;;;;;;;;58.50;41.75;;;;;7.29;100.00;101834.66;4937556;28;49592;-68
2022/12/05 13:34:45;;;;;;;;;45.50;37.25;;;;;7.31;100.00;101837.34;4934220;28;49782;-71
2022/12/05 13:43:24;;;;;;;;;43.75;41.50;;;;;7.07;100.00;101809.16;4957711;28;49615;-71
2022/12/05 13:46:06;;;;;;;;;59.50;45.25;;;;;7.28;100.00;101832.84;4956166;28;49751;-72
2022/12/05 13:48:36;;;;;;;;;50.50;43.00;;;;;7.28;100.00;101834.56;4952420;28;50461;-73
2022/12/05 13:51:21;;;;;;;;;47.00;36.25;;;;;7.21;100.00;101825.53;4952092;28;49900;-73
2022/12/05 13:53:56;;;;;;;;;52.00;40.00;;;;;7.12;100.00;101817.22;4940546;28;49792;-74
2022/12/05 13:56:44;;;;;;;;;38.25;32.75;;;;;7.17;100.00;101826.19;4940330;28;49987;-74
2022/12/05 13:59:09;;;;;;;;;47.25;41.25;;;;;7.15;100.00;101828.72;4939397;28;50233;-71
2022/12/05 14:01:47;;;;;;;;;51.00;40.50;;;;;6.99;100.00;101799.13;4949209;28;49732;-73
2022/12/05 14:04:44;;;;;;;;;51.75;42.75;;;;;7.12;100.00;101836.38;4934010;28;49707;-73
2022/12/05 14:07:10;;;;;;;;;50.00;41.25;;;;;7.10;100.00;101834.53;4954771;28;50015;-73
2022/12/05 14:09:53;;;;;;;;;43.25;37.50;;;;;7.11;100.00;101839.81;4948562;28;49525;-73
2022/12/05 14:12:18;;;;;;;;;49.25;40.50;;;;;7.11;100.00;101837.22;4933801;28;49872;-74
2022/12/05 14:14:56;;;;;;;;;51.00;41.25;;;;;7.12;100.00;101832.88;4933565;28;49702;-74
2022/12/05 14:17:24;;;;;;;;;40.25;30.75;;;;;6.96;100.00;101796.38;4934251;28;50164;-76
2022/12/05 14:20:13;;;;;;;;;51.00;43.00;;;;;7.08;100.00;101823.09;4938070;28;50527;-70
2022/12/05 14:22:48;;;;;;;;;43.00;38.50;;;;;7.09;100.00;101835.34;4945837;28;49811;-71
2022/12/05 14:25:35;;;;;;;;;49.00;36.75;;;;;6.91;100.00;101819.59;4947143;28;50199;-74
2022/12/05 14:28:09;;;;;;;;;48.50;42.25;;;;;7.08;100.00;101838.78;4933588;28;50127;-74
2022/12/05 14:30:49;;;;;;;;;45.75;41.25;;;;;7.07;100.00;101850.03;4933634;28;49798;-73
2022/12/05 14:33:20;;;;;;;;;43.25;34.75;;;;;7.04;100.00;101849.84;4933649;28;49867;-78
2022/12/05 14:35:50;;;;;;;;;47.00;39.25;;;;;6.99;100.00;101854.84;4933682;28;49997;-74
2022/12/05 14:38:31;;;;;;;;;38.00;36.75;;;;;6.99;100.00;101853.97;4933595;28;49957;-75
2022/12/05 14:41:25;;;;;;;;;43.50;37.25;;;;;6.96;100.00;101848.59;4933433;28;50374;-82
2022/12/05 14:43:54;;;;;;;;;39.25;34.25;;;;;6.95;100.00;101852.91;4933679;28;49644;-76
2022/12/05 14:46:26;;;;;;;;;41.00;38.50;;;;;6.84;100.00;101836.66;4933528;28;49842;-81
2022/12/05 14:48:51;;;;;;;;;48.50;38.00;;;;;6.83;100.00;101832.25;4933430;28;49825;-74
2022/12/05 14:51:28;;;;;;;;;39.25;37.50;;;;;7.00;100.00;101864.47;4933494;28;50445;-79
2022/12/05 14:53:55;;;;;;;;;48.75;41.00;;;;;6.89;100.00;101843.03;4933257;28;49847;-74
2022/12/05 14:56:26;;;;;;;;;45.25;40.00;;;;;6.87;100.00;101847.28;4933687;28;49837;-74
2022/12/05 14:59:06;;;;;;;;;39.75;35.50;;;;;6.96;100.00;101856.41;4933838;28;49647;-82
2022/12/05 15:01:50;;;;;;;;;41.00;37.25;;;;;6.78;100.00;101841.56;4952059;28;50260;-80
2022/12/05 15:04:22;;;;;;;;;50.25;41.25;;;;;6.89;100.00;101856.09;4951769;28;49804;-78
2022/12/05 15:06:56;;;;;;;;;46.00;41.75;;;;;6.92;100.00;101863.16;4951552;28;49876;-79
2022/12/05 15:09:53;;;;;;;;;40.00;35.75;;;;;6.93;100.00;101864.97;4951662;28;49819;-74
2022/12/05 15:12:40;;;;;;;;;42.00;38.50;;;;;6.83;100.00;101837.47;4982030;28;50798;-80
2022/12/05 15:15:38;;;;;;;;;69.25;55.50;;;;;6.89;100.00;101863.91;4950978;28;49770;-77
2022/12/05 15:18:32;;;;;;;;;44.00;37.00;;;;;6.81;100.00;101878.25;4947707;28;49837;-75
2022/12/05 15:21:12;;;;;;;;;62.75;48.75;;;;;6.62;100.00;101845.88;4966299;28;49738;-73
2022/12/05 15:24:08;;;;;;;;;34.25;31.00;;;;;6.40;100.00;101836.91;4950713;28;49797;-74
2022/12/05 15:26:47;;;;;;;;;36.00;34.00;;;;;6.59;99.63;101883.16;4924522;28;49968;-73
2022/12/05 15:29:19;;;;;;;;;38.50;32.00;;;;;6.57;100.00;101884.78;4963226;28;49811;-78
2022/12/05 15:31:53;;;;;;;;;39.75;36.00;;;;;6.49;100.00;101863.47;4963460;28;49959;-74
2022/12/05 15:34:28;;;;;;;;;49.75;36.50;;;;;6.70;100.00;101876.78;4931027;28;51458;-74
2022/12/05 15:37:00;;;;;;;;;38.25;36.25;;;;;6.75;100.00;101884.84;4944775;28;49676;-73
2022/12/05 15:39:27;;;;;;;;;48.50;34.75;;;;;6.31;100.00;101824.25;4960352;28;49768;-77
2022/12/05 15:41:53;;;;;;;;;47.25;37.25;;;;;6.67;100.00;101879.25;4932735;28;50185;-75
2022/12/05 15:44:20;;;;;;;;;50.50;38.50;;;;;6.72;100.00;101879.47;4932162;28;50589;-76
2022/12/05 15:46:52;;;;;;;;;37.00;33.75;;;;;6.69;100.00;101872.38;4932687;28;49605;-77
2022/12/05 15:49:26;;;;;;;;;41.25;33.75;;;;;6.45;100.00;101827.59;4932540;28;49718;-74
2022/12/05 15:52:11;;;;;;;;;56.25;41.25;;;;;6.71;100.00;101868.16;4932647;28;49694;-73
2022/12/05 15:54:38;;;;;;;;;44.50;38.75;;;;;6.74;100.00;101873.50;4932561;28;50609;-73
2022/12/05 15:57:17;;;;;;;;;41.00;35.75;;;;;6.54;100.00;101838.53;4932559;28;49733;-74
2022/12/05 15:59:46;;;;;;;;;49.50;37.00;;;;;6.60;100.00;101856.22;4932145;28;49749;-75
2022/12/05 16:02:21;;;;;;;;;41.25;33.75;;;;;6.70;100.00;101873.28;4932320;28;49569;-71
2022/12/05 16:04:53;;;;;;;;;46.00;39.50;;;;;6.55;100.00;101850.75;4932139;28;50441;-78
2022/12/05 16:07:20;;;;;;;;;31.75;29.50;;;;;6.65;100.00;101883.44;4946571;28;49772;-74
2022/12/05 16:09:46;;;;;;;;;35.75;32.50;;;;;6.65;100.00;101885.16;4932292;28;49768;-76
2022/12/05 16:12:23;;;;;;;;;33.75;31.00;;;;;6.55;100.00;101884.66;4951320;28;49573;-78
2022/12/05 16:14:51;;;;;;;;;38.00;32.00;;;;;6.45;100.00;101884.97;4950375;28;50728;-74
2022/12/05 16:17:19;;;;;;;;;43.25;37.50;;;;;6.38;100.00;101895.00;4950625;28;49738;-76
2022/12/05 16:19:45;;;;;;;;;53.00;43.50;;;;;6.40;100.00;101896.88;4950709;28;49821;-80
2022/12/05 16:22:10;;;;;;;;;43.25;38.50;;;;;6.38;100.00;101901.13;4965439;28;49811;-81
2022/12/05 16:24:47;;;;;;;;;45.00;34.50;;;;;6.22;100.00;101875.88;4950741;28;50382;-74
2022/12/05 16:27:24;;;;;;;;;52.75;42.50;;;;;6.38;100.00;101897.63;4950817;28;49875;-77
2022/12/05 16:30:11;;;;;;;;;32.25;30.75;;;;;6.40;100.00;101903.81;4950760;28;49629;-74
2022/12/05 16:32:41;;;;;;;;;44.75;38.75;;;;;6.31;100.00;101896.38;4950878;28;49864;-73
2022/12/05 16:35:35;;;;;;;;;40.00;33.25;;;;;5.70;100.00;101773.91;4950296;28;50660;-78
2022/12/05 16:38:16;;;;;;;;;36.50;36.50;;;;;6.36;100.00;101897.50;4945666;28;50031;-72
2022/12/05 16:40:44;;;;;;;;;47.25;39.00;;;;;6.34;100.00;101900.84;4949920;28;49778;-71
2022/12/05 16:43:27;;;;;;;;;37.50;36.50;;;;;6.39;100.00;101899.41;4951895;28;50145;-71
2022/12/05 16:45:57;;;;;;;;;47.50;40.00;;;;;6.17;100.00;101879.03;4945183;28;50422;-76
2022/12/05 16:48:30;;;;;;;;;44.25;36.00;;;;;6.25;100.00;101899.50;4942141;28;49599;-74
2022/12/05 16:51:27;;;;;;;;;43.00;39.25;;;;;6.34;100.00;101913.88;4940108;28;49678;-74
2022/12/05 16:53:54;;;;;;;;;55.00;45.75;;;;;6.22;100.00;101893.25;4934616;28;50016;-75
2022/12/05 16:56:31;;;;;;;;;59.50;48.25;;;;;6.37;100.00;101920.19;4934717;28;51067;-72
2022/12/05 16:59:00;;;;;;;;;41.00;38.50;;;;;6.29;100.00;101909.31;4934829;28;49810;-77
2022/12/05 17:01:26;;;;;;;;;33.50;26.75;;;;;6.38;100.00;101921.09;4949349;28;49840;-67
2022/12/05 17:03:53;;;;;;;;;50.75;39.25;;;;;6.35;100.00;101921.78;4937168;28;49648;-71
2022/12/05 17:06:25;;;;;;;;;38.50;33.50;;;;;6.34;100.00;101924.31;4934212;28;50667;-69
2022/12/05 17:08:52;;;;;;;;;51.25;41.75;;;;;6.26;100.00;101919.56;4945711;28;49930;-69
2022/12/05 17:11:28;;;;;;;;;54.25;38.75;;;;;6.24;100.00;101929.00;4951870;28;49838;-69
2022/12/05 17:13:55;;;;;;;;;39.00;33.50;;;;;6.24;100.00;101934.22;4950302;28;49571;-70
2022/12/05 17:16:21;;;;;;;;;49.25;39.50;;;;;6.10;100.00;101900.38;4947247;28;50027;-70
2022/12/05 17:18:46;;;;;;;;;44.50;35.75;;;;;6.22;100.00;101928.03;4951623;28;50095;-68
2022/12/05 17:21:21;;;;;;;;;43.50;39.00;;;;;6.18;100.00;101941.72;4944104;28;49841;-69
2022/12/05 17:23:47;;;;;;;;;49.25;40.50;;;;;6.21;100.00;101944.50;4942382;28;49984;-69
2022/12/05 17:26:14;;;;;;;;;49.75;41.75;;;;;6.17;100.00;101945.13;4948764;28;50019;-69
2022/12/05 17:28:39;;;;;;;;;49.50;42.50;;;;;5.96;100.00;101912.59;4933517;28;49664;-69
2022/12/05 17:31:06;;;;;;;;;48.00;44.00;;;;;6.15;100.00;101943.25;4948315;28;49785;-70
2022/12/05 17:33:31;;;;;;;;;47.25;39.00;;;;;6.04;100.00;101929.59;4945637;28;49812;-74
2022/12/05 17:35:57;;;;;;;;;45.75;41.75;;;;;6.16;100.00;101948.53;4938866;28;51410;-74
2022/12/05 17:38:22;;;;;;;;;52.50;42.00;;;;;6.16;100.00;101952.84;4932726;28;49996;-75
2022/12/05 17:40:48;;;;;;;;;40.00;38.25;;;;;6.09;100.00;101946.41;4965041;28;49699;-74
2022/12/05 17:43:14;;;;;;;;;39.75;33.50;;;;;5.98;100.00;101924.94;4934546;28;49984;-75
2022/12/05 17:45:40;;;;;;;;;33.75;31.75;;;;;6.10;100.00;101963.84;4933901;28;49721;-69
2022/12/05 17:48:11;;;;;;;;;36.75;32.75;;;;;6.04;100.00;101963.47;4934040;28;49823;-74
2022/12/05 17:50:38;;;;;;;;;49.75;42.25;;;;;5.93;100.00;101957.63;4934209;28;49860;-74
2022/12/05 17:53:03;;;;;;;;;41.25;36.75;;;;;5.88;100.00;101958.13;4933067;28;49562;-76
2022/12/05 17:55:28;;;;;;;;;47.50;35.75;;;;;5.90;100.00;101967.91;4933289;28;62352;-69
2022/12/05 17:57:54;;;;;;;;;40.00;34.50;;;;;5.81;100.00;101948.19;4934029;28;49674;-69
2022/12/05 18:00:21;;;;;;;;;42.75;37.75;;;;;5.90;100.00;101980.94;4934110;28;49822;-69
2022/12/05 18:02:48;;;;;;;;;43.50;39.00;;;;;5.91;100.00;101964.47;4943946;28;49963;-68
2022/12/05 18:05:15;;;;;;;;;49.25;39.00;;;;;5.98;100.00;101981.34;4960024;28;50606;-68
2022/12/05 18:07:42;;;;;;;;;44.75;40.25;;;;;5.95;100.00;101966.44;4938257;28;49860;-68
2022/12/05 18:10:11;;;;;;;;;45.00;35.75;;;;;5.85;100.00;101960.56;4932767;28;49735;-68
2022/12/05 18:12:36;;;;;;;;;47.25;40.00;;;;;5.79;100.00;101950.72;4933634;28;49611;-69
2022/12/05 18:15:03;;;;;;;;;42.00;37.25;;;;;5.86;100.00;101960.66;4933610;28;49919;-72
2022/12/05 18:17:28;;;;;;;;;42.50;38.00;;;;;5.98;100.00;101982.28;4933760;28;49738;-70
2022/12/05 18:19:55;;;;;;;;;40.75;37.00;;;;;5.94;100.00;101964.66;4933973;28;50014;-68
2022/12/05 18:22:22;;;;;;;;;45.50;39.00;;;;;6.02;100.00;101991.16;4933363;28;49831;-69
2022/12/05 18:24:47;;;;;;;;;38.50;33.25;;;;;5.97;100.00;101980.47;4933278;28;50523;-69
2022/12/05 18:27:13;;;;;;;;;41.00;38.50;;;;;5.79;100.00;101953.31;4948277;28;49778;-68
2022/12/05 18:29:38;;;;;;;;;49.50;41.75;;;;;5.85;100.00;101981.41;4933583;28;50062;-69
2022/12/05 18:32:03;;;;;;;;;58.50;44.50;;;;;5.87;100.00;101975.47;4933658;28;49723;-68
2022/12/05 18:34:29;;;;;;;;;44.25;37.00;;;;;5.88;100.00;101973.78;4933015;28;50561;-70
2022/12/05 18:36:54;;;;;;;;;53.00;42.00;;;;;5.85;100.00;101968.38;4933177;28;49652;-68
2022/12/05 18:39:20;;;;;;;;;44.75;38.50;;;;;5.91;100.00;101979.22;4933609;28;49699;-69